WAT850 EGKK-EDDH
Flight info
| Callsign | WAT850 |
|---|---|
| Flight time | 1h 19m |
| Altitude | 39000 |
| Route | FRANE M604 PAAVO Q295 SOMVA DCT MAVAS DCT PARYD DCT GASTU DCT OSTOR T904 RIBSO RIBSO3P |
| Aircraft | A20N/M-SDE2E3FGHIRWXY/LB1 |
Departure
| Time | 2026-05-03 22:04 |
|---|---|
| Airport | London Gatwick Airport (EGKK) |
Arrival
| Time | 2026-05-03 23:24 |
|---|---|
| Airport | Hamburg Helmut Schmidt Airport (EDDH) |
| Time | Latitude | Longitude | Altitude | Speed | Heading |
|---|---|---|---|---|---|
| 2026-05-03 21:30 | 51.15448 | -0.16420 | 201 ft | 0 kts | 75° |
| 2026-05-03 21:51 | 51.15443 | -0.16439 | 200 ft | 2 kts | 59° |
| 2026-05-03 21:51 | 51.15437 | -0.16460 | 200 ft | 2 kts | 68° |
| 2026-05-03 21:51 | 51.15431 | -0.16482 | 199 ft | 2 kts | 65° |
| 2026-05-03 21:51 | 51.15424 | -0.16504 | 199 ft | 2 kts | 66° |
| 2026-05-03 21:52 | 51.15418 | -0.16526 | 198 ft | 2 kts | 65° |
| 2026-05-03 21:52 | 51.15412 | -0.16548 | 198 ft | 2 kts | 66° |
| 2026-05-03 21:52 | 51.15407 | -0.16564 | 198 ft | 1 kts | 63° |
| 2026-05-03 21:52 | 51.15405 | -0.16573 | 197 ft | 0 kts | 78° |
| 2026-05-03 21:56 | 51.15405 | -0.16574 | 197 ft | 0 kts | 78° |
| 2026-05-03 21:56 | 51.15408 | -0.16557 | 198 ft | 3 kts | 78° |
| 2026-05-03 21:56 | 51.15407 | -0.16520 | 198 ft | 3 kts | 107° |
| 2026-05-03 21:56 | 51.15352 | -0.16477 | 199 ft | 10 kts | 175° |
| 2026-05-03 21:57 | 51.15300 | -0.16505 | 199 ft | 8 kts | 232° |
| 2026-05-03 21:57 | 51.15288 | -0.16561 | 196 ft | 2 kts | 259° |
| 2026-05-03 21:57 | 51.15281 | -0.16617 | 194 ft | 4 kts | 256° |
| 2026-05-03 21:57 | 51.15264 | -0.16648 | 193 ft | 4 kts | 204° |
| 2026-05-03 21:58 | 51.15249 | -0.16652 | 193 ft | 0 kts | 179° |
| 2026-05-03 22:03 | 51.15234 | -0.16649 | 193 ft | 8 kts | 171° |
| 2026-05-03 22:03 | 51.15163 | -0.16638 | 193 ft | 10 kts | 198° |
| 2026-05-03 22:03 | 51.15127 | -0.16756 | 189 ft | 16 kts | 258° |
| 2026-05-03 22:04 | 51.15050 | -0.17292 | 190 ft | 85 kts | 258° |
| 2026-05-03 22:04 | 51.14877 | -0.18562 | 196 ft | 146 kts | 258° |
| 2026-05-03 22:04 | 51.14642 | -0.20351 | 437 ft | 174 kts | 258° |
| 2026-05-03 22:04 | 51.14416 | -0.22227 | 1151 ft | 174 kts | 258° |
| 2026-05-03 22:05 | 51.14179 | -0.24066 | 1926 ft | 172 kts | 258° |
| 2026-05-03 22:05 | 51.13949 | -0.25941 | 2489 ft | 179 kts | 259° |
| 2026-05-03 22:05 | 51.13777 | -0.27954 | 2933 ft | 193 kts | 272° |
| 2026-05-03 22:05 | 51.14180 | -0.30076 | 3367 ft | 209 kts | 302° |
| 2026-05-03 22:06 | 51.15255 | -0.31706 | 3731 ft | 231 kts | 330° |
| 2026-05-03 22:06 | 51.16873 | -0.32296 | 3932 ft | 240 kts | 7° |
| 2026-05-03 22:06 | 51.18355 | -0.31304 | 3976 ft | 232 kts | 41° |
| 2026-05-03 22:06 | 51.19265 | -0.29217 | 3979 ft | 234 kts | 73° |
| 2026-05-03 22:07 | 51.19363 | -0.26546 | 3998 ft | 256 kts | 102° |
| 2026-05-03 22:07 | 51.18872 | -0.23782 | 4248 ft | 264 kts | 109° |
| 2026-05-03 22:07 | 51.18245 | -0.20988 | 4705 ft | 267 kts | 111° |
| 2026-05-03 22:07 | 51.17605 | -0.18214 | 5178 ft | 269 kts | 111° |
| 2026-05-03 22:08 | 51.16964 | -0.15433 | 5677 ft | 272 kts | 111° |
| 2026-05-03 22:08 | 51.16306 | -0.12570 | 6450 ft | 279 kts | 111° |
| 2026-05-03 22:08 | 51.15646 | -0.09679 | 7420 ft | 279 kts | 111° |
| 2026-05-03 22:08 | 51.14994 | -0.06774 | 8287 ft | 283 kts | 111° |
| 2026-05-03 22:09 | 51.14348 | -0.03841 | 9111 ft | 288 kts | 111° |
| 2026-05-03 22:09 | 51.13692 | -0.00803 | 9930 ft | 292 kts | 111° |
| 2026-05-03 22:09 | 51.13043 | 0.02255 | 10606 ft | 301 kts | 111° |
| 2026-05-03 22:10 | 51.11628 | 0.08948 | 11426 ft | 337 kts | 111° |
| 2026-05-03 22:10 | 51.10876 | 0.12508 | 12020 ft | 347 kts | 110° |
| 2026-05-03 22:10 | 51.10442 | 0.16274 | 12598 ft | 354 kts | 92° |
| 2026-05-03 22:10 | 51.10871 | 0.20137 | 12887 ft | 359 kts | 70° |
| 2026-05-03 22:11 | 51.12148 | 0.23542 | 12909 ft | 361 kts | 48° |
| 2026-05-03 22:11 | 51.14141 | 0.26005 | 12922 ft | 361 kts | 27° |
| 2026-05-03 22:11 | 51.16424 | 0.27693 | 12892 ft | 363 kts | 22° |
| 2026-05-03 22:11 | 51.18739 | 0.29215 | 12917 ft | 364 kts | 21° |
| 2026-05-03 22:12 | 51.21085 | 0.30723 | 12931 ft | 364 kts | 21° |
| 2026-05-03 22:12 | 51.23446 | 0.32234 | 12901 ft | 363 kts | 21° |
| 2026-05-03 22:12 | 51.25782 | 0.33728 | 12926 ft | 363 kts | 21° |
| 2026-05-03 22:12 | 51.28103 | 0.35214 | 12941 ft | 363 kts | 21° |
| 2026-05-03 22:13 | 51.30473 | 0.36732 | 13162 ft | 370 kts | 21° |
| 2026-05-03 22:13 | 51.32887 | 0.38279 | 13970 ft | 372 kts | 21° |
| 2026-05-03 22:13 | 51.35263 | 0.39803 | 14775 ft | 373 kts | 21° |
| 2026-05-03 22:13 | 51.37678 | 0.41355 | 15481 ft | 377 kts | 21° |
| 2026-05-03 22:14 | 51.40105 | 0.42918 | 16113 ft | 381 kts | 21° |
| 2026-05-03 22:14 | 51.42567 | 0.44506 | 16671 ft | 384 kts | 21° |
| 2026-05-03 22:14 | 51.45053 | 0.46112 | 16894 ft | 385 kts | 21° |
| 2026-05-03 22:14 | 51.47554 | 0.47730 | 16859 ft | 385 kts | 21° |
| 2026-05-03 22:15 | 51.50007 | 0.49318 | 16893 ft | 385 kts | 21° |
| 2026-05-03 22:15 | 51.52494 | 0.50929 | 16904 ft | 385 kts | 21° |
| 2026-05-03 22:15 | 51.54965 | 0.52534 | 16910 ft | 385 kts | 21° |
| 2026-05-03 22:15 | 51.57459 | 0.54211 | 17110 ft | 392 kts | 25° |
| 2026-05-03 22:16 | 51.59798 | 0.56470 | 17821 ft | 394 kts | 33° |
| 2026-05-03 22:16 | 51.62045 | 0.58969 | 18574 ft | 394 kts | 34° |
| 2026-05-03 22:16 | 51.64281 | 0.61477 | 19195 ft | 398 kts | 34° |
| 2026-05-03 22:16 | 51.66584 | 0.64017 | 19779 ft | 403 kts | 33° |
| 2026-05-03 22:17 | 51.68903 | 0.66535 | 20364 ft | 407 kts | 34° |
| 2026-05-03 22:17 | 51.71265 | 0.69086 | 20965 ft | 411 kts | 33° |
| 2026-05-03 22:17 | 51.73663 | 0.71661 | 21547 ft | 415 kts | 33° |
| 2026-05-03 22:17 | 51.76071 | 0.74238 | 22106 ft | 419 kts | 33° |
| 2026-05-03 22:18 | 51.78513 | 0.76850 | 22659 ft | 423 kts | 33° |
| 2026-05-03 22:18 | 51.80958 | 0.79466 | 23193 ft | 426 kts | 33° |
| 2026-05-03 22:18 | 51.83413 | 0.82110 | 23716 ft | 429 kts | 35° |
| 2026-05-03 22:18 | 51.85655 | 0.85305 | 24187 ft | 433 kts | 49° |
| 2026-05-03 22:19 | 51.87390 | 0.89273 | 24679 ft | 434 kts | 63° |
| 2026-05-03 22:19 | 51.88640 | 0.93686 | 25157 ft | 435 kts | 69° |
| 2026-05-03 22:19 | 51.89785 | 0.98279 | 25596 ft | 439 kts | 70° |
| 2026-05-03 22:19 | 51.90907 | 1.02845 | 26018 ft | 442 kts | 70° |
| 2026-05-03 22:20 | 51.92045 | 1.07440 | 26427 ft | 446 kts | 70° |
| 2026-05-03 22:20 | 51.93234 | 1.12190 | 26841 ft | 449 kts | 70° |
| 2026-05-03 22:20 | 51.94432 | 1.16947 | 27242 ft | 452 kts | 69° |
| 2026-05-03 22:20 | 51.95626 | 1.21674 | 27625 ft | 455 kts | 69° |
| 2026-05-03 22:21 | 51.96814 | 1.26370 | 28000 ft | 457 kts | 69° |
| 2026-05-03 22:21 | 51.98024 | 1.31156 | 28362 ft | 460 kts | 69° |
| 2026-05-03 22:21 | 51.99241 | 1.35982 | 28733 ft | 463 kts | 69° |
| 2026-05-03 22:21 | 52.00460 | 1.40818 | 29085 ft | 465 kts | 69° |
| 2026-05-03 22:22 | 52.01678 | 1.45664 | 29542 ft | 465 kts | 70° |
| 2026-05-03 22:22 | 52.02893 | 1.50502 | 30081 ft | 463 kts | 70° |
| 2026-05-03 22:22 | 52.04085 | 1.55262 | 30585 ft | 462 kts | 70° |
| 2026-05-03 22:22 | 52.05293 | 1.60101 | 31033 ft | 461 kts | 70° |
| 2026-05-03 22:23 | 52.06502 | 1.64948 | 31415 ft | 461 kts | 70° |
| 2026-05-03 22:23 | 52.07756 | 1.69995 | 31796 ft | 460 kts | 71° |
| 2026-05-03 22:23 | 52.08976 | 1.74923 | 32164 ft | 460 kts | 71° |
| 2026-05-03 22:23 | 52.10195 | 1.79860 | 32527 ft | 459 kts | 71° |
| 2026-05-03 22:24 | 52.11387 | 1.84642 | 32851 ft | 459 kts | 71° |
| 2026-05-03 22:24 | 52.12588 | 1.89459 | 33168 ft | 459 kts | 71° |
| 2026-05-03 22:24 | 52.13788 | 1.94292 | 33470 ft | 458 kts | 71° |
| 2026-05-03 22:24 | 52.14970 | 1.99082 | 33775 ft | 458 kts | 71° |
| 2026-05-03 22:25 | 52.16164 | 2.03941 | 34040 ft | 457 kts | 71° |
| 2026-05-03 22:25 | 52.17328 | 2.08705 | 34276 ft | 457 kts | 71° |
| 2026-05-03 22:25 | 52.18506 | 2.13534 | 34502 ft | 458 kts | 71° |
| 2026-05-03 22:25 | 52.19664 | 2.18303 | 34735 ft | 458 kts | 71° |
| 2026-05-03 22:26 | 52.20835 | 2.23130 | 34973 ft | 458 kts | 71° |
| 2026-05-03 22:26 | 52.22009 | 2.27978 | 35219 ft | 457 kts | 71° |
| 2026-05-03 22:26 | 52.23170 | 2.32785 | 35467 ft | 457 kts | 71° |
| 2026-05-03 22:26 | 52.24318 | 2.37546 | 35703 ft | 456 kts | 71° |
| 2026-05-03 22:27 | 52.25474 | 2.42352 | 35936 ft | 455 kts | 71° |
| 2026-05-03 22:27 | 52.26656 | 2.47283 | 36175 ft | 454 kts | 70° |
| 2026-05-03 22:27 | 52.27805 | 2.52084 | 36384 ft | 454 kts | 70° |
| 2026-05-03 22:27 | 52.28943 | 2.56854 | 36572 ft | 454 kts | 70° |
| 2026-05-03 22:28 | 52.30091 | 2.61681 | 36756 ft | 453 kts | 71° |
| 2026-05-03 22:28 | 52.31128 | 2.66576 | 36937 ft | 452 kts | 75° |
| 2026-05-03 22:28 | 52.32008 | 2.71412 | 37115 ft | 452 kts | 76° |
| 2026-05-03 22:28 | 52.32880 | 2.76389 | 37284 ft | 451 kts | 77° |
| 2026-05-03 22:29 | 52.33726 | 2.81260 | 37444 ft | 451 kts | 76° |
| 2026-05-03 22:29 | 52.34582 | 2.86177 | 37601 ft | 451 kts | 76° |
| 2026-05-03 22:29 | 52.35448 | 2.91148 | 37753 ft | 452 kts | 76° |
| 2026-05-03 22:29 | 52.36301 | 2.96050 | 37901 ft | 452 kts | 76° |
| 2026-05-03 22:30 | 52.37156 | 3.00961 | 38046 ft | 452 kts | 76° |
| 2026-05-03 22:30 | 52.38017 | 3.05922 | 38180 ft | 452 kts | 76° |
| 2026-05-03 22:30 | 52.38871 | 3.10862 | 38296 ft | 453 kts | 76° |
| 2026-05-03 22:30 | 52.39733 | 3.15858 | 38407 ft | 454 kts | 76° |
| 2026-05-03 22:31 | 52.40580 | 3.20763 | 38508 ft | 455 kts | 76° |
| 2026-05-03 22:31 | 52.42295 | 3.30721 | 38676 ft | 457 kts | 76° |
| 2026-05-03 22:32 | 52.44015 | 3.40769 | 38857 ft | 459 kts | 76° |
| 2026-05-03 22:32 | 52.45734 | 3.50871 | 38907 ft | 461 kts | 76° |
| 2026-05-03 22:33 | 52.47450 | 3.61016 | 38914 ft | 462 kts | 76° |
| 2026-05-03 22:33 | 52.49149 | 3.71122 | 38914 ft | 460 kts | 77° |
| 2026-05-03 22:34 | 52.50829 | 3.81194 | 38913 ft | 460 kts | 77° |
| 2026-05-03 22:34 | 52.52504 | 3.91284 | 38921 ft | 460 kts | 77° |
| 2026-05-03 22:35 | 52.54176 | 4.01412 | 38925 ft | 461 kts | 77° |
| 2026-05-03 22:35 | 52.55847 | 4.11592 | 38929 ft | 461 kts | 77° |
| 2026-05-03 22:36 | 52.57499 | 4.21706 | 38933 ft | 462 kts | 77° |
| 2026-05-03 22:36 | 52.59146 | 4.31861 | 38933 ft | 462 kts | 77° |
| 2026-05-03 22:37 | 52.60798 | 4.42103 | 38928 ft | 461 kts | 77° |
| 2026-05-03 22:37 | 52.62430 | 4.52280 | 38932 ft | 461 kts | 77° |
| 2026-05-03 22:38 | 52.64046 | 4.62419 | 38929 ft | 460 kts | 77° |
| 2026-05-03 22:38 | 52.65648 | 4.72543 | 38928 ft | 460 kts | 78° |
| 2026-05-03 22:39 | 52.67247 | 4.82723 | 38927 ft | 460 kts | 78° |
| 2026-05-03 22:39 | 52.68846 | 4.92950 | 38931 ft | 461 kts | 78° |
| 2026-05-03 22:40 | 52.70425 | 5.03111 | 38937 ft | 460 kts | 78° |
| 2026-05-03 22:40 | 52.71994 | 5.13277 | 38941 ft | 460 kts | 78° |
| 2026-05-03 22:41 | 52.73565 | 5.23506 | 38935 ft | 460 kts | 78° |
| 2026-05-03 22:41 | 52.75123 | 5.33718 | 38928 ft | 460 kts | 78° |
| 2026-05-03 22:42 | 52.76667 | 5.43902 | 38922 ft | 460 kts | 78° |
| 2026-05-03 22:42 | 52.78202 | 5.54089 | 38930 ft | 460 kts | 78° |
| 2026-05-03 22:43 | 52.79736 | 5.64339 | 38928 ft | 459 kts | 78° |
| 2026-05-03 22:43 | 52.81245 | 5.74497 | 38932 ft | 458 kts | 79° |
| 2026-05-03 22:44 | 52.82750 | 5.84710 | 38933 ft | 458 kts | 78° |
| 2026-05-03 22:44 | 52.84248 | 5.94931 | 38928 ft | 458 kts | 78° |
| 2026-05-03 22:45 | 52.85739 | 6.05146 | 38925 ft | 458 kts | 79° |
| 2026-05-03 22:45 | 52.87217 | 6.15340 | 38922 ft | 458 kts | 79° |
| 2026-05-03 22:46 | 52.88686 | 6.25544 | 38926 ft | 458 kts | 79° |
| 2026-05-03 22:46 | 52.90152 | 6.35815 | 38923 ft | 458 kts | 79° |
| 2026-05-03 22:47 | 52.91600 | 6.45998 | 38920 ft | 458 kts | 79° |
| 2026-05-03 22:47 | 52.93050 | 6.56274 | 38928 ft | 458 kts | 79° |
| 2026-05-03 22:48 | 52.94483 | 6.66503 | 38922 ft | 459 kts | 79° |
| 2026-05-03 22:48 | 52.95914 | 6.76803 | 38926 ft | 459 kts | 79° |
| 2026-05-03 22:49 | 52.97332 | 6.87066 | 38920 ft | 459 kts | 79° |
| 2026-05-03 22:49 | 52.98750 | 6.97384 | 38922 ft | 459 kts | 79° |
| 2026-05-03 22:50 | 53.00153 | 7.07655 | 38921 ft | 460 kts | 79° |
| 2026-05-03 22:50 | 53.01555 | 7.18002 | 38907 ft | 460 kts | 79° |
| 2026-05-03 22:50 | 53.02279 | 7.23224 | 38640 ft | 460 kts | 77° |
| 2026-05-03 22:51 | 53.03286 | 7.28203 | 38387 ft | 459 kts | 69° |
| 2026-05-03 22:51 | 53.04707 | 7.32973 | 38130 ft | 458 kts | 60° |
| 2026-05-03 22:51 | 53.06488 | 7.37329 | 37880 ft | 457 kts | 52° |
| 2026-05-03 22:51 | 53.08601 | 7.41230 | 37630 ft | 456 kts | 43° |
| 2026-05-03 22:52 | 53.11025 | 7.44643 | 37372 ft | 455 kts | 34° |
| 2026-05-03 22:52 | 53.13670 | 7.47565 | 37124 ft | 456 kts | 31° |
| 2026-05-03 22:52 | 53.16433 | 7.50410 | 36871 ft | 457 kts | 30° |
| 2026-05-03 22:52 | 53.19152 | 7.53198 | 36589 ft | 458 kts | 30° |
| 2026-05-03 22:53 | 53.21829 | 7.55971 | 36315 ft | 459 kts | 31° |
| 2026-05-03 22:53 | 53.24531 | 7.58804 | 36088 ft | 459 kts | 31° |
| 2026-05-03 22:53 | 53.27227 | 7.61653 | 35859 ft | 460 kts | 31° |
| 2026-05-03 22:53 | 53.29951 | 7.64547 | 35633 ft | 461 kts | 31° |
| 2026-05-03 22:54 | 53.32686 | 7.67465 | 35405 ft | 463 kts | 32° |
| 2026-05-03 22:54 | 53.35396 | 7.70378 | 35179 ft | 464 kts | 32° |
| 2026-05-03 22:54 | 53.38124 | 7.73308 | 34949 ft | 465 kts | 32° |
| 2026-05-03 22:54 | 53.40826 | 7.76209 | 34723 ft | 466 kts | 32° |
| 2026-05-03 22:55 | 53.43557 | 7.79145 | 34406 ft | 468 kts | 32° |
| 2026-05-03 22:55 | 53.46293 | 7.82085 | 33945 ft | 469 kts | 32° |
| 2026-05-03 22:55 | 53.49033 | 7.85034 | 33359 ft | 470 kts | 32° |
| 2026-05-03 22:55 | 53.51782 | 7.87997 | 32716 ft | 473 kts | 32° |
| 2026-05-03 22:56 | 53.54547 | 7.90982 | 32051 ft | 475 kts | 32° |
| 2026-05-03 22:56 | 53.57317 | 7.93978 | 31344 ft | 478 kts | 32° |
| 2026-05-03 22:56 | 53.60086 | 7.97097 | 30616 ft | 482 kts | 38° |
| 2026-05-03 22:56 | 53.62482 | 8.00997 | 29823 ft | 484 kts | 52° |
| 2026-05-03 22:57 | 53.64350 | 8.05872 | 29031 ft | 482 kts | 66° |
| 2026-05-03 22:57 | 53.65549 | 8.11136 | 28311 ft | 479 kts | 74° |
| 2026-05-03 22:57 | 53.66554 | 8.16562 | 27662 ft | 476 kts | 75° |
| 2026-05-03 22:57 | 53.67509 | 8.21880 | 27203 ft | 470 kts | 75° |
| 2026-05-03 22:58 | 53.68463 | 8.27127 | 26729 ft | 465 kts | 75° |
| 2026-05-03 22:58 | 53.69416 | 8.32287 | 26252 ft | 460 kts | 75° |
| 2026-05-03 22:58 | 53.70367 | 8.37387 | 25768 ft | 456 kts | 75° |
| 2026-05-03 22:58 | 53.71315 | 8.42454 | 25293 ft | 451 kts | 75° |
| 2026-05-03 22:59 | 53.72250 | 8.47440 | 24816 ft | 447 kts | 74° |
| 2026-05-03 22:59 | 53.73186 | 8.52430 | 24342 ft | 443 kts | 74° |
| 2026-05-03 22:59 | 53.74134 | 8.57504 | 23860 ft | 440 kts | 74° |
| 2026-05-03 22:59 | 53.75053 | 8.62423 | 23376 ft | 436 kts | 74° |
| 2026-05-03 23:00 | 53.75969 | 8.67346 | 22896 ft | 433 kts | 75° |
| 2026-05-03 23:00 | 53.76858 | 8.72145 | 22429 ft | 429 kts | 75° |
| 2026-05-03 23:00 | 53.77747 | 8.76959 | 21956 ft | 426 kts | 75° |
| 2026-05-03 23:00 | 53.78617 | 8.81669 | 21485 ft | 423 kts | 75° |
| 2026-05-03 23:01 | 53.79494 | 8.86431 | 20999 ft | 421 kts | 75° |
| 2026-05-03 23:01 | 53.80350 | 8.91092 | 20539 ft | 418 kts | 75° |
| 2026-05-03 23:01 | 53.81203 | 8.95755 | 20049 ft | 416 kts | 75° |
| 2026-05-03 23:01 | 53.82055 | 9.00440 | 19561 ft | 413 kts | 76° |
| 2026-05-03 23:02 | 53.82619 | 9.05195 | 19079 ft | 408 kts | 86° |
| 2026-05-03 23:02 | 53.82708 | 9.09913 | 18602 ft | 402 kts | 96° |
| 2026-05-03 23:02 | 53.82476 | 9.14597 | 18122 ft | 399 kts | 99° |
| 2026-05-03 23:02 | 53.82175 | 9.19243 | 17644 ft | 397 kts | 99° |
| 2026-05-03 23:03 | 53.81877 | 9.23855 | 17171 ft | 395 kts | 99° |
| 2026-05-03 23:03 | 53.81596 | 9.28447 | 16691 ft | 393 kts | 98° |
| 2026-05-03 23:03 | 53.81470 | 9.32993 | 16213 ft | 393 kts | 91° |
| 2026-05-03 23:03 | 53.81685 | 9.37573 | 15749 ft | 392 kts | 83° |
| 2026-05-03 23:04 | 53.82179 | 9.42101 | 15285 ft | 391 kts | 79° |
| 2026-05-03 23:04 | 53.82741 | 9.46579 | 14822 ft | 389 kts | 79° |
| 2026-05-03 23:04 | 53.83308 | 9.51049 | 14357 ft | 386 kts | 78° |
| 2026-05-03 23:04 | 53.83852 | 9.55411 | 13916 ft | 383 kts | 79° |
| 2026-05-03 23:05 | 53.84386 | 9.59760 | 13749 ft | 370 kts | 79° |
| 2026-05-03 23:05 | 53.84890 | 9.63922 | 13647 ft | 356 kts | 79° |
| 2026-05-03 23:05 | 53.85373 | 9.67965 | 13569 ft | 342 kts | 80° |
| 2026-05-03 23:05 | 53.85833 | 9.71839 | 13499 ft | 328 kts | 80° |
| 2026-05-03 23:06 | 53.86108 | 9.75574 | 13206 ft | 317 kts | 107° |
| 2026-05-03 23:06 | 53.84881 | 9.78587 | 12062 ft | 320 kts | 144° |
| 2026-05-03 23:06 | 53.83351 | 9.81217 | 11820 ft | 320 kts | 127° |
| 2026-05-03 23:06 | 53.82511 | 9.84669 | 11560 ft | 321 kts | 102° |
| 2026-05-03 23:07 | 53.82556 | 9.88406 | 11312 ft | 317 kts | 76° |
| 2026-05-03 23:07 | 53.83437 | 9.91757 | 11082 ft | 310 kts | 58° |
| 2026-05-03 23:07 | 53.84435 | 9.94981 | 10808 ft | 305 kts | 74° |
| 2026-05-03 23:07 | 53.84813 | 9.98423 | 10569 ft | 297 kts | 85° |
| 2026-05-03 23:08 | 53.85036 | 10.01883 | 10325 ft | 292 kts | 84° |
| 2026-05-03 23:08 | 53.85312 | 10.05247 | 10094 ft | 287 kts | 82° |
| 2026-05-03 23:08 | 53.85663 | 10.08543 | 9847 ft | 283 kts | 79° |
| 2026-05-03 23:08 | 53.86058 | 10.11739 | 9697 ft | 276 kts | 78° |
| 2026-05-03 23:09 | 53.86474 | 10.14886 | 9572 ft | 271 kts | 78° |
| 2026-05-03 23:09 | 53.86893 | 10.17989 | 9444 ft | 271 kts | 78° |
| 2026-05-03 23:09 | 53.87313 | 10.21077 | 9313 ft | 270 kts | 78° |
| 2026-05-03 23:09 | 53.87733 | 10.24164 | 9176 ft | 266 kts | 78° |
| 2026-05-03 23:10 | 53.88206 | 10.27151 | 9022 ft | 259 kts | 68° |
| 2026-05-03 23:10 | 53.89052 | 10.29766 | 8826 ft | 252 kts | 51° |
| 2026-05-03 23:10 | 53.90137 | 10.32048 | 8608 ft | 247 kts | 47° |
| 2026-05-03 23:10 | 53.91257 | 10.34234 | 8383 ft | 244 kts | 46° |
| 2026-05-03 23:11 | 53.92375 | 10.36423 | 8151 ft | 243 kts | 47° |
| 2026-05-03 23:11 | 53.93455 | 10.38574 | 7927 ft | 243 kts | 47° |
| 2026-05-03 23:11 | 53.94548 | 10.40784 | 7690 ft | 242 kts | 48° |
| 2026-05-03 23:11 | 53.95445 | 10.43165 | 7411 ft | 242 kts | 75° |
| 2026-05-03 23:12 | 53.95502 | 10.45917 | 7164 ft | 232 kts | 110° |
| 2026-05-03 23:12 | 53.94766 | 10.48230 | 6929 ft | 220 kts | 141° |
| 2026-05-03 23:12 | 53.93603 | 10.49888 | 6748 ft | 219 kts | 149° |
| 2026-05-03 23:12 | 53.92379 | 10.51444 | 6521 ft | 218 kts | 154° |
| 2026-05-03 23:13 | 53.91006 | 10.52284 | 6244 ft | 204 kts | 184° |
| 2026-05-03 23:13 | 53.89659 | 10.51939 | 6023 ft | 193 kts | 208° |
| 2026-05-03 23:13 | 53.88585 | 10.50699 | 5798 ft | 188 kts | 230° |
| 2026-05-03 23:13 | 53.87740 | 10.49000 | 5601 ft | 188 kts | 232° |
| 2026-05-03 23:14 | 53.86911 | 10.47288 | 5381 ft | 188 kts | 232° |
| 2026-05-03 23:14 | 53.86088 | 10.45596 | 5159 ft | 188 kts | 232° |
| 2026-05-03 23:14 | 53.85256 | 10.43896 | 4993 ft | 182 kts | 232° |
| 2026-05-03 23:14 | 53.84462 | 10.42278 | 4785 ft | 175 kts | 232° |
| 2026-05-03 23:15 | 53.83710 | 10.40697 | 4556 ft | 169 kts | 233° |
| 2026-05-03 23:15 | 53.82998 | 10.39183 | 4351 ft | 162 kts | 233° |
| 2026-05-03 23:15 | 53.82307 | 10.37732 | 4159 ft | 154 kts | 233° |
| 2026-05-03 23:15 | 53.81649 | 10.36369 | 3982 ft | 145 kts | 233° |
| 2026-05-03 23:16 | 53.81028 | 10.35096 | 3818 ft | 137 kts | 233° |
| 2026-05-03 23:16 | 53.80424 | 10.33866 | 3680 ft | 136 kts | 233° |
| 2026-05-03 23:16 | 53.79816 | 10.32634 | 3528 ft | 136 kts | 233° |
| 2026-05-03 23:16 | 53.79206 | 10.31404 | 3369 ft | 136 kts | 233° |
| 2026-05-03 23:17 | 53.78603 | 10.30194 | 3212 ft | 135 kts | 233° |
| 2026-05-03 23:17 | 53.77997 | 10.28978 | 3053 ft | 135 kts | 233° |
| 2026-05-03 23:17 | 53.77391 | 10.27766 | 2975 ft | 134 kts | 234° |
| 2026-05-03 23:17 | 53.76792 | 10.26566 | 2967 ft | 134 kts | 233° |
| 2026-05-03 23:18 | 53.76188 | 10.25356 | 2966 ft | 135 kts | 233° |
| 2026-05-03 23:18 | 53.75583 | 10.24144 | 2958 ft | 135 kts | 234° |
| 2026-05-03 23:18 | 53.74978 | 10.22932 | 2957 ft | 135 kts | 233° |
| 2026-05-03 23:18 | 53.74376 | 10.21722 | 2956 ft | 135 kts | 233° |
| 2026-05-03 23:19 | 53.73770 | 10.20506 | 2958 ft | 135 kts | 234° |
| 2026-05-03 23:19 | 53.73164 | 10.19286 | 2917 ft | 135 kts | 233° |
| 2026-05-03 23:19 | 53.72564 | 10.18078 | 2731 ft | 134 kts | 233° |
| 2026-05-03 23:19 | 53.71967 | 10.16874 | 2559 ft | 133 kts | 233° |
| 2026-05-03 23:20 | 53.71371 | 10.15673 | 2382 ft | 133 kts | 234° |
| 2026-05-03 23:20 | 53.70775 | 10.14460 | 2206 ft | 133 kts | 235° |
| 2026-05-03 23:20 | 53.70191 | 10.13259 | 2013 ft | 132 kts | 234° |
| 2026-05-03 23:20 | 53.69611 | 10.12073 | 1930 ft | 132 kts | 235° |
| 2026-05-03 23:21 | 53.69011 | 10.10886 | 1732 ft | 133 kts | 234° |
| 2026-05-03 23:21 | 53.68413 | 10.09692 | 1562 ft | 133 kts | 234° |
| 2026-05-03 23:21 | 53.67822 | 10.08492 | 1346 ft | 133 kts | 234° |
| 2026-05-03 23:21 | 53.67229 | 10.07286 | 1164 ft | 133 kts | 234° |
| 2026-05-03 23:22 | 53.66043 | 10.04897 | 841 ft | 133 kts | 232° |
| 2026-05-03 23:22 | 53.65449 | 10.03715 | 654 ft | 132 kts | 233° |
| 2026-05-03 23:22 | 53.64864 | 10.02521 | 444 ft | 132 kts | 232° |
| 2026-05-03 23:23 | 53.64285 | 10.01344 | 280 ft | 130 kts | 230° |
| 2026-05-03 23:23 | 53.63707 | 10.00183 | 91 ft | 128 kts | 230° |
| 2026-05-03 23:23 | 53.63154 | 9.99065 | 36 ft | 112 kts | 232° |
| 2026-05-03 23:23 | 53.62769 | 9.98283 | 36 ft | 64 kts | 229° |
| 2026-05-03 23:24 | 53.62553 | 9.97836 | 28 ft | 27 kts | 231° |
| 2026-05-03 23:24 | 53.62445 | 9.97821 | 29 ft | 16 kts | 134° |
| 2026-05-03 23:24 | 53.62436 | 9.97988 | 33 ft | 14 kts | 79° |
| 2026-05-03 23:24 | 53.62453 | 9.98134 | 36 ft | 12 kts | 79° |
| 2026-05-03 23:25 | 53.62469 | 9.98275 | 38 ft | 12 kts | 78° |
| 2026-05-03 23:25 | 53.62487 | 9.98423 | 39 ft | 15 kts | 79° |
| 2026-05-03 23:25 | 53.62506 | 9.98600 | 40 ft | 15 kts | 79° |
| 2026-05-03 23:25 | 53.62524 | 9.98771 | 43 ft | 14 kts | 79° |
| 2026-05-03 23:26 | 53.62544 | 9.98932 | 43 ft | 13 kts | 79° |
| 2026-05-03 23:26 | 53.62567 | 9.98982 | 43 ft | 8 kts | 358° |
| 2026-05-03 23:26 | 53.62637 | 9.98926 | 41 ft | 7 kts | 320° |
| 2026-05-03 23:26 | 53.62639 | 9.98861 | 39 ft | 0 kts | 239° |